createdAt,value
2023-03-13T00:01:30.665Z,3.28
2023-03-13T00:03:57.400Z,3.15
2023-03-13T00:06:26.564Z,2.95
2023-03-13T00:08:54.484Z,3.42
2023-03-13T00:11:21.010Z,3.67
2023-03-13T00:13:47.453Z,3.67
2023-03-13T00:16:16.594Z,3.10
2023-03-13T00:18:48.045Z,3.50
2023-03-13T00:21:15.096Z,3.60
2023-03-13T00:23:41.584Z,3.20
2023-03-13T00:26:11.225Z,3.55
2023-03-13T00:28:39.689Z,3.38
2023-03-13T00:31:26.876Z,2.85
2023-03-13T00:33:58.652Z,3.45
2023-03-13T00:36:28.791Z,2.97
2023-03-13T00:38:56.344Z,3.55
2023-03-13T00:41:25.364Z,3.25
2023-03-13T00:43:53.429Z,3.13
2023-03-13T00:46:23.059Z,3.80
2023-03-13T00:48:50.045Z,3.08
2023-03-13T00:51:18.294Z,3.33
2023-03-13T00:53:46.107Z,2.80
2023-03-13T00:56:15.127Z,3.40
2023-03-13T00:58:43.462Z,3.50
2023-03-13T01:01:17.032Z,3.80
2023-03-13T01:03:46.819Z,3.33
2023-03-13T01:06:16.632Z,2.80
2023-03-13T01:08:43.433Z,3.08
2023-03-13T01:11:13.885Z,3.47
2023-03-13T01:13:40.929Z,3.65
2023-03-13T01:16:11.700Z,3.05
2023-03-13T01:18:40.335Z,3.05
2023-03-13T01:21:07.489Z,3.25
2023-03-13T01:23:34.287Z,2.60
2023-03-13T01:26:00.769Z,2.80
2023-03-13T01:28:27.638Z,2.75
2023-03-13T01:30:54.719Z,3.17
2023-03-13T01:33:21.364Z,3.35
2023-03-13T01:35:47.936Z,2.80
2023-03-13T01:38:14.961Z,2.60
2023-03-13T01:40:49.093Z,2.42
2023-03-13T01:43:27.734Z,3.13
2023-03-13T01:46:16.198Z,2.90
2023-03-13T01:49:13.163Z,2.85
2023-03-13T01:52:19.169Z,3.10
2023-03-13T01:55:08.415Z,2.47
2023-03-13T01:57:42.810Z,3.08
2023-03-13T02:00:11.965Z,2.67
2023-03-13T02:02:45.459Z,2.70
2023-03-13T02:05:15.198Z,2.95
2023-03-13T02:07:45.786Z,3.20
2023-03-13T02:10:14.687Z,2.95
2023-03-13T02:12:42.142Z,2.83
2023-03-13T02:15:13.957Z,2.72
2023-03-13T02:17:41.374Z,2.80
2023-03-13T02:20:08.951Z,2.70
2023-03-13T02:23:14.097Z,3.22
2023-03-13T02:25:47.614Z,2.75
2023-03-13T02:28:35.632Z,2.88
2023-03-13T02:31:06.680Z,3.47
2023-03-13T02:33:39.805Z,2.80
2023-03-13T02:36:08.142Z,3.33
2023-03-13T02:38:42.536Z,2.53
2023-03-13T02:41:09.919Z,2.95
2023-03-13T02:43:38.244Z,3.13
2023-03-13T02:46:07.450Z,2.75
2023-03-13T02:48:57.023Z,3.00
2023-03-13T02:51:41.678Z,3.05
2023-03-13T02:54:14.247Z,3.08
2023-03-13T02:56:44.194Z,2.80
2023-03-13T02:59:11.888Z,2.65
2023-03-13T03:01:42.077Z,2.88
2023-03-13T03:04:08.812Z,2.55
2023-03-13T03:06:35.600Z,3.33
2023-03-13T03:09:04.043Z,2.80
2023-03-13T03:11:33.822Z,3.08
2023-03-13T03:14:05.615Z,2.83
2023-03-13T03:16:37.593Z,3.05
2023-03-13T03:19:06.472Z,2.85
2023-03-13T03:21:33.744Z,2.78
2023-03-13T03:24:00.241Z,3.00
2023-03-13T03:26:27.109Z,2.70
2023-03-13T03:28:53.904Z,3.22
2023-03-13T03:31:20.604Z,3.10
2023-03-13T03:33:47.599Z,4.18
2023-03-13T03:36:19.134Z,3.63
2023-03-13T03:38:46.358Z,4.53
2023-03-13T03:41:16.440Z,5.25
2023-03-13T03:43:43.528Z,4.47
2023-03-13T03:46:12.230Z,4.20
2023-03-13T03:48:38.901Z,3.67
2023-03-13T03:51:07.788Z,3.03
2023-03-13T03:53:38.062Z,2.50
2023-03-13T03:56:04.803Z,2.95
2023-03-13T03:58:31.419Z,2.72
2023-03-13T04:01:05.741Z,2.67
2023-03-13T04:03:32.676Z,3.03
2023-03-13T04:05:59.512Z,2.78
2023-03-13T04:08:26.270Z,2.85
2023-03-13T04:10:53.133Z,2.80
2023-03-13T04:13:22.367Z,2.60
2023-03-13T04:15:49.568Z,2.53
2023-03-13T04:18:17.106Z,3.08
2023-03-13T04:20:44.260Z,2.78
2023-03-13T04:23:11.065Z,2.70
2023-03-13T04:25:38.191Z,3.35
2023-03-13T04:28:08.893Z,3.00
2023-03-13T04:30:41.093Z,2.78
2023-03-13T04:33:19.311Z,2.60
2023-03-13T04:36:00.723Z,2.40
2023-03-13T04:38:45.592Z,2.75
2023-03-13T04:41:51.187Z,2.85
2023-03-13T04:44:31.505Z,2.70
2023-03-13T04:47:07.971Z,2.90
2023-03-13T04:49:46.106Z,2.65
2023-03-13T04:52:31.219Z,2.53
2023-03-13T04:55:11.806Z,3.25
2023-03-13T04:57:45.091Z,3.20
2023-03-13T05:00:24.341Z,2.33
2023-03-13T05:03:09.756Z,3.05
2023-03-13T05:05:50.293Z,2.78
2023-03-13T05:08:51.885Z,2.85
2023-03-13T05:11:53.668Z,2.45
2023-03-13T05:14:46.332Z,2.60
2023-03-13T05:17:24.824Z,3.25
2023-03-13T05:20:11.465Z,2.85
2023-03-13T05:23:00.828Z,2.60
2023-03-13T05:25:48.817Z,2.95
2023-03-13T05:28:31.907Z,2.72
2023-03-13T05:31:16.986Z,3.10
2023-03-13T05:33:57.724Z,2.85
2023-03-13T05:36:40.523Z,2.75
2023-03-13T05:39:26.587Z,2.20
2023-03-13T05:42:18.615Z,2.20
2023-03-13T05:44:59.301Z,2.70
2023-03-13T05:47:54.405Z,2.60
2023-03-13T05:50:33.923Z,3.10
2023-03-13T05:53:26.612Z,2.83
2023-03-13T05:56:15.777Z,3.60
2023-03-13T05:59:01.667Z,3.50
2023-03-13T06:01:28.463Z,3.42
2023-03-13T06:04:09.932Z,3.55
2023-03-13T06:06:38.485Z,3.75
2023-03-13T06:09:05.962Z,3.90
2023-03-13T06:11:33.930Z,3.25
2023-03-13T06:14:00.605Z,3.88
2023-03-13T06:16:35.728Z,3.45
2023-03-13T06:19:15.234Z,3.15
2023-03-13T06:21:42.172Z,3.60
2023-03-13T06:24:09.050Z,2.80
2023-03-13T06:26:35.513Z,2.60
2023-03-13T06:29:01.959Z,3.00
2023-03-13T06:31:28.427Z,2.58
2023-03-13T06:33:55.696Z,2.53
2023-03-13T06:36:24.277Z,2.60
2023-03-13T06:38:51.134Z,2.00
2023-03-13T06:41:17.902Z,2.13
2023-03-13T06:43:44.733Z,1.92
2023-03-13T06:46:22.792Z,1.95
2023-03-13T06:48:50.185Z,2.17
2023-03-13T06:51:19.435Z,1.58
2023-03-13T06:53:46.466Z,1.55
2023-03-13T06:56:13.267Z,1.70
2023-03-13T06:58:40.178Z,1.77
2023-03-13T07:01:08.099Z,1.83
2023-03-13T07:03:35.370Z,1.45
2023-03-13T07:06:02.096Z,1.70
2023-03-13T07:08:28.826Z,1.85
2023-03-13T07:10:59.893Z,1.65
2023-03-13T07:13:26.812Z,1.80
2023-03-13T07:15:53.847Z,1.75
2023-03-13T07:18:21.253Z,1.50
2023-03-13T07:20:59.155Z,1.60
2023-03-13T07:23:27.470Z,1.63
2023-03-13T07:26:03.065Z,1.38
2023-03-13T07:28:35.570Z,2.05
2023-03-13T07:31:26.567Z,1.42
2023-03-13T07:33:56.600Z,1.60
2023-03-13T07:36:23.761Z,1.50
2023-03-13T07:38:51.442Z,1.45
2023-03-13T07:41:18.898Z,1.50
2023-03-13T07:43:46.598Z,1.10
2023-03-13T07:46:18.484Z,1.17
2023-03-13T07:48:45.703Z,1.38
2023-03-13T07:51:15.233Z,1.30
2023-03-13T07:53:41.965Z,1.48
2023-03-13T07:56:12.148Z,1.00
2023-03-13T07:58:40.532Z,0.95
2023-03-13T08:01:31.040Z,1.15
2023-03-13T08:04:01.216Z,1.20
2023-03-13T08:06:32.761Z,1.10
2023-03-13T08:09:00.485Z,1.17
2023-03-13T08:11:28.595Z,1.35
2023-03-13T08:13:56.729Z,1.10
2023-03-13T08:16:26.383Z,1.02
2023-03-13T08:18:56.065Z,1.33
2023-03-13T08:21:29.021Z,1.10
2023-03-13T08:23:58.104Z,1.30
2023-03-13T08:26:27.567Z,1.10
2023-03-13T08:28:57.014Z,1.25
2023-03-13T08:31:28.676Z,1.08
2023-03-13T08:33:55.161Z,1.15
2023-03-13T08:36:24.914Z,1.15
2023-03-13T08:38:53.308Z,0.80
2023-03-13T08:41:22.121Z,1.05
2023-03-13T08:43:49.079Z,1.20
2023-03-13T08:46:17.786Z,1.13
2023-03-13T08:48:45.032Z,0.93
2023-03-13T08:51:14.078Z,0.98
2023-03-13T08:53:42.330Z,1.55
2023-03-13T08:56:10.456Z,1.45
2023-03-13T08:58:37.190Z,1.13
2023-03-13T09:01:06.157Z,1.20
2023-03-13T09:03:33.360Z,1.15
2023-03-13T09:06:00.875Z,1.10
2023-03-13T09:08:28.501Z,1.10
2023-03-13T09:10:59.168Z,1.15
2023-03-13T09:13:27.052Z,0.93
2023-03-13T09:16:05.610Z,0.95
2023-03-13T09:18:32.525Z,1.10
2023-03-13T09:20:59.185Z,1.02
2023-03-13T09:23:26.348Z,1.05
2023-03-13T09:25:54.133Z,0.93
2023-03-13T09:28:21.118Z,1.02
2023-03-13T09:30:49.926Z,1.00
2023-03-13T09:33:20.914Z,1.00
2023-03-13T09:35:51.145Z,0.80
2023-03-13T09:38:19.391Z,1.00
2023-03-13T09:41:05.244Z,0.88
2023-03-13T09:43:50.303Z,0.77
2023-03-13T09:46:23.227Z,0.73
2023-03-13T09:48:55.972Z,0.80
2023-03-13T09:51:29.744Z,0.90
2023-03-13T09:54:11.471Z,0.90
2023-03-13T09:56:45.057Z,0.90
2023-03-13T09:59:27.845Z,0.60
2023-03-13T10:01:58.096Z,0.60
2023-03-13T10:04:35.500Z,0.60
2023-03-13T10:07:03.803Z,0.70
2023-03-13T10:09:32.734Z,0.52
2023-03-13T10:12:18.945Z,0.65
2023-03-13T10:14:51.437Z,0.70
2023-03-13T10:17:32.239Z,0.70
2023-03-13T10:20:09.509Z,0.52
2023-03-13T10:22:37.908Z,0.70
2023-03-13T10:25:12.051Z,0.60
2023-03-13T10:27:50.804Z,0.60
2023-03-13T10:30:26.591Z,0.73
2023-03-13T10:32:57.492Z,0.40
2023-03-13T10:35:26.033Z,0.60
2023-03-13T10:38:02.208Z,0.50
2023-03-13T10:40:28.942Z,0.68
2023-03-13T10:43:04.885Z,0.60
2023-03-13T10:45:35.499Z,0.40
2023-03-13T10:48:14.750Z,0.52
2023-03-13T10:50:50.172Z,0.90
2023-03-13T10:53:28.875Z,0.73
2023-03-13T10:56:10.532Z,0.52
2023-03-13T10:58:42.932Z,0.55
2023-03-13T11:01:26.000Z,0.60
2023-03-13T11:03:55.086Z,0.80
2023-03-13T11:06:31.023Z,0.60
2023-03-13T11:09:19.466Z,0.60
2023-03-13T11:11:52.908Z,0.70
2023-03-13T11:14:21.952Z,0.63
2023-03-13T11:16:50.894Z,0.82
2023-03-13T11:19:44.197Z,1.00
2023-03-13T11:22:14.367Z,0.73
2023-03-13T11:25:08.619Z,0.70
2023-03-13T11:27:48.492Z,0.80
2023-03-13T11:30:36.806Z,0.70
2023-03-13T11:33:20.040Z,0.63
2023-03-13T11:35:55.208Z,0.52
2023-03-13T11:38:35.164Z,1.02
2023-03-13T11:41:25.913Z,0.57
2023-03-13T11:44:04.835Z,0.43
2023-03-13T11:47:02.032Z,0.70
2023-03-13T11:49:34.714Z,0.70
2023-03-13T11:52:24.313Z,0.52
2023-03-13T11:55:13.947Z,0.60
2023-03-13T11:58:06.376Z,0.50
2023-03-13T12:00:57.249Z,0.50
2023-03-13T12:03:42.564Z,0.40
2023-03-13T12:06:27.886Z,0.50
2023-03-13T12:09:02.190Z,0.40
2023-03-13T12:11:43.527Z,0.60
2023-03-13T12:14:18.781Z,0.55
2023-03-13T12:16:55.263Z,0.52
2023-03-13T12:19:54.780Z,0.43
2023-03-13T12:22:39.944Z,0.50
2023-03-13T12:25:14.862Z,0.50
2023-03-13T12:27:47.283Z,0.63
2023-03-13T12:30:51.425Z,0.55
2023-03-13T12:33:35.173Z,0.70
2023-03-13T12:36:11.000Z,0.60
2023-03-13T12:39:01.534Z,0.63
2023-03-13T12:42:10.424Z,0.68
2023-03-13T12:44:37.055Z,0.57
2023-03-13T12:47:31.562Z,0.75
2023-03-13T12:50:05.612Z,0.70
2023-03-13T12:52:49.650Z,0.80
2023-03-13T12:55:40.554Z,0.60
2023-03-13T12:58:10.893Z,0.50
2023-03-13T13:00:40.567Z,0.52
2023-03-13T13:03:16.289Z,0.45
2023-03-13T13:06:07.108Z,0.63
2023-03-13T13:09:07.662Z,0.50
2023-03-13T13:11:34.245Z,0.80
2023-03-13T13:14:02.306Z,0.60
2023-03-13T13:16:30.176Z,0.50
2023-03-13T13:19:32.308Z,0.77
2023-03-13T13:22:38.978Z,0.57
2023-03-13T13:25:11.743Z,0.52
2023-03-13T13:27:38.141Z,0.63
2023-03-13T13:30:30.262Z,0.80
2023-03-13T13:33:20.212Z,0.60
2023-03-13T13:36:07.408Z,0.70
2023-03-13T13:38:40.198Z,0.60
2023-03-13T13:41:09.760Z,0.70
2023-03-13T13:43:41.383Z,0.50
2023-03-13T13:46:33.169Z,0.38
2023-03-13T13:49:05.679Z,0.30
2023-03-13T13:51:33.583Z,0.30
2023-03-13T13:54:24.459Z,0.40
2023-03-13T13:57:18.156Z,0.40
2023-03-13T13:59:49.386Z,0.50
2023-03-13T14:02:32.211Z,0.40
2023-03-13T14:05:18.616Z,0.43
2023-03-13T14:07:52.344Z,0.50
2023-03-13T14:10:37.299Z,0.55
2023-03-13T14:13:12.343Z,0.45
2023-03-13T14:15:45.382Z,0.50
2023-03-13T14:18:21.825Z,0.65
2023-03-13T14:21:25.274Z,0.50
2023-03-13T14:23:52.676Z,0.50
2023-03-13T14:26:27.825Z,0.38
2023-03-13T14:28:58.004Z,0.43
2023-03-13T14:31:29.942Z,0.32
2023-03-13T14:33:58.571Z,0.30
2023-03-13T14:36:26.592Z,0.60
2023-03-13T14:39:01.240Z,0.30
2023-03-13T14:41:37.422Z,0.22
2023-03-13T14:44:17.563Z,0.22
2023-03-13T14:46:45.068Z,0.57
2023-03-13T14:49:20.936Z,0.35
2023-03-13T14:52:00.683Z,0.40
2023-03-13T14:54:35.698Z,0.30
2023-03-13T14:57:05.199Z,0.40
2023-03-13T14:59:32.289Z,0.30
2023-03-13T15:02:15.410Z,0.20
2023-03-13T15:05:28.058Z,0.30
2023-03-13T15:07:55.084Z,0.35
2023-03-13T15:10:23.378Z,0.20
2023-03-13T15:12:50.349Z,0.35
2023-03-13T15:15:17.407Z,0.25
2023-03-13T15:17:44.221Z,0.30
2023-03-13T15:20:13.436Z,0.40
2023-03-13T15:22:42.580Z,0.40
2023-03-13T15:25:20.822Z,0.30
2023-03-13T15:27:48.801Z,0.30
2023-03-13T15:30:19.247Z,0.28
2023-03-13T15:32:47.059Z,0.20
2023-03-13T15:35:31.299Z,0.20
2023-03-13T15:38:01.967Z,0.40
2023-03-13T15:40:30.892Z,0.30
2023-03-13T15:42:57.385Z,0.30
2023-03-13T15:45:23.995Z,0.15
2023-03-13T15:47:50.525Z,0.30
2023-03-13T15:50:19.640Z,0.20
2023-03-13T15:52:46.456Z,0.32
2023-03-13T15:55:13.728Z,0.30
2023-03-13T15:57:49.124Z,0.20
2023-03-13T16:00:21.636Z,0.20
2023-03-13T16:02:48.789Z,0.30
2023-03-13T16:05:16.034Z,0.20
2023-03-13T16:07:45.301Z,0.30
2023-03-13T16:10:25.535Z,0.40
2023-03-13T16:12:53.157Z,0.30
2023-03-13T16:15:20.010Z,0.30
2023-03-13T16:17:46.614Z,0.38
2023-03-13T16:20:17.295Z,0.50
2023-03-13T16:22:44.441Z,0.30
2023-03-13T16:25:11.352Z,0.35
2023-03-13T16:27:38.011Z,0.30
2023-03-13T16:30:13.320Z,0.30
2023-03-13T16:32:39.871Z,0.35
2023-03-13T16:35:06.543Z,0.40
2023-03-13T16:37:32.975Z,0.50
2023-03-13T16:39:59.414Z,0.60
2023-03-13T16:42:26.078Z,0.40
2023-03-13T16:44:52.750Z,0.50
2023-03-13T16:47:24.202Z,0.40
2023-03-13T16:49:50.650Z,0.57
2023-03-13T16:52:17.990Z,0.63
2023-03-13T16:54:45.336Z,0.55
2023-03-13T16:57:13.811Z,0.88
2023-03-13T16:59:40.427Z,0.90
2023-03-13T17:02:18.164Z,0.95
2023-03-13T17:04:45.966Z,1.35
2023-03-13T17:07:24.911Z,1.00
2023-03-13T17:09:52.235Z,1.15
2023-03-13T17:12:19.352Z,1.05
2023-03-13T17:14:46.548Z,0.90
2023-03-13T17:17:16.955Z,0.70
2023-03-13T17:19:44.096Z,1.23
2023-03-13T17:22:15.960Z,0.80
2023-03-13T17:24:43.338Z,0.50
2023-03-13T17:27:13.114Z,0.70
2023-03-13T17:29:39.673Z,0.47
2023-03-13T17:32:06.358Z,0.50
2023-03-13T17:34:32.865Z,0.57
2023-03-13T17:37:04.728Z,0.63
2023-03-13T17:39:31.378Z,0.98
2023-03-13T17:42:00.208Z,1.05
2023-03-13T17:44:26.729Z,0.60
2023-03-13T17:46:53.339Z,0.85
2023-03-13T17:49:20.597Z,0.85
2023-03-13T17:51:49.824Z,0.70
2023-03-13T17:54:16.536Z,0.93
2023-03-13T17:56:43.803Z,0.63
2023-03-13T17:59:14.894Z,0.82
2023-03-13T18:01:42.173Z,0.95
2023-03-13T18:04:09.722Z,0.65
2023-03-13T18:06:39.171Z,0.60
2023-03-13T18:09:08.770Z,0.77
2023-03-13T18:11:38.714Z,0.77
2023-03-13T18:14:06.296Z,0.90
2023-03-13T18:16:38.210Z,0.60
2023-03-13T18:19:06.536Z,0.70
2023-03-13T18:21:34.097Z,0.80
2023-03-13T18:24:00.615Z,0.90
2023-03-13T18:26:32.371Z,0.52
2023-03-13T18:29:00.830Z,0.80
2023-03-13T18:31:32.513Z,0.88
2023-03-13T18:33:59.847Z,1.02
2023-03-13T18:36:27.695Z,1.40
2023-03-13T18:38:54.915Z,1.48
2023-03-13T18:41:22.030Z,1.40
2023-03-13T18:43:49.042Z,1.10
2023-03-13T18:46:24.069Z,1.40
2023-03-13T18:48:50.930Z,1.05
2023-03-13T18:51:18.936Z,0.98
2023-03-13T18:53:46.671Z,0.80
2023-03-13T18:56:22.098Z,0.50
2023-03-13T18:58:50.696Z,1.00
2023-03-13T19:01:20.761Z,0.98
2023-03-13T19:03:47.645Z,0.85
2023-03-13T19:06:27.775Z,0.90
2023-03-13T19:08:57.572Z,0.93
2023-03-13T19:11:30.267Z,0.93
2023-03-13T19:13:57.518Z,0.95
2023-03-13T19:16:30.324Z,0.93
2023-03-13T19:18:58.235Z,1.13
2023-03-13T19:21:26.863Z,1.10
2023-03-13T19:23:54.376Z,0.80
2023-03-13T19:26:29.706Z,1.00
2023-03-13T19:28:56.777Z,0.98
2023-03-13T19:31:23.450Z,1.15
2023-03-13T19:33:50.596Z,1.02
2023-03-13T19:36:19.166Z,0.95
2023-03-13T19:38:45.771Z,0.90
2023-03-13T19:41:13.551Z,1.08
2023-03-13T19:43:40.719Z,1.00
2023-03-13T19:46:28.402Z,1.00
2023-03-13T19:48:57.216Z,1.00
2023-03-13T19:51:24.615Z,1.10
2023-03-13T19:53:51.146Z,0.98
2023-03-13T19:56:20.186Z,0.90
2023-03-13T19:58:49.365Z,0.80
2023-03-13T20:01:17.902Z,1.10
2023-03-13T20:03:45.869Z,0.90
2023-03-13T20:06:23.942Z,1.13
2023-03-13T20:08:55.244Z,0.93
2023-03-13T20:11:22.510Z,1.05
2023-03-13T20:13:49.205Z,1.20
2023-03-13T20:16:16.149Z,1.10
2023-03-13T20:18:48.580Z,0.93
2023-03-13T20:21:16.502Z,0.98
2023-03-13T20:23:44.991Z,1.33
2023-03-13T20:26:13.377Z,0.90
2023-03-13T20:28:42.764Z,0.80
2023-03-13T20:31:09.669Z,0.93
2023-03-13T20:33:36.966Z,1.00
2023-03-13T20:36:07.257Z,1.13
2023-03-13T20:38:34.841Z,1.10
2023-03-13T20:41:02.004Z,0.98
2023-03-13T20:43:29.244Z,1.27
2023-03-13T20:45:55.824Z,1.10
2023-03-13T20:48:22.958Z,1.20
2023-03-13T20:50:52.344Z,1.10
2023-03-13T20:53:20.101Z,1.20
2023-03-13T20:55:46.916Z,1.02
2023-03-13T20:58:13.352Z,0.98
2023-03-13T21:00:40.678Z,1.10
2023-03-13T21:03:07.210Z,1.00
2023-03-13T21:05:38.190Z,1.13
2023-03-13T21:08:04.718Z,0.85
2023-03-13T21:10:31.251Z,1.05
2023-03-13T21:12:57.772Z,1.30
2023-03-13T21:15:24.246Z,0.93
2023-03-13T21:17:50.777Z,0.90
2023-03-13T21:20:17.258Z,1.13
2023-03-13T21:22:44.005Z,1.00
2023-03-13T21:25:11.593Z,0.90
2023-03-13T21:27:38.961Z,0.45
2023-03-13T21:30:07.739Z,0.80
2023-03-13T21:32:38.890Z,0.95
2023-03-13T21:35:06.961Z,0.90
2023-03-13T21:37:33.813Z,0.90
2023-03-13T21:40:00.401Z,0.93
2023-03-13T21:42:27.096Z,0.70
2023-03-13T21:44:53.928Z,0.50
2023-03-13T21:47:26.987Z,0.80
2023-03-13T21:49:54.707Z,0.60
2023-03-13T21:52:22.389Z,0.98
2023-03-13T21:54:49.486Z,0.70
2023-03-13T21:57:16.230Z,0.70
2023-03-13T21:59:42.990Z,0.90
2023-03-13T22:02:13.470Z,0.90
2023-03-13T22:04:40.525Z,0.85
2023-03-13T22:07:06.988Z,0.95
2023-03-13T22:09:33.695Z,0.80
2023-03-13T22:12:00.293Z,1.15
2023-03-13T22:14:27.992Z,0.73
2023-03-13T22:16:54.754Z,0.90
2023-03-13T22:19:21.515Z,0.70
2023-03-13T22:21:47.940Z,0.90
2023-03-13T22:24:14.437Z,0.80
2023-03-13T22:26:41.076Z,0.85
2023-03-13T22:29:07.614Z,0.68
2023-03-13T22:31:34.124Z,0.90
2023-03-13T22:34:00.669Z,1.00
2023-03-13T22:36:27.121Z,0.77
2023-03-13T22:38:53.599Z,0.80
2023-03-13T22:41:20.166Z,0.98
2023-03-13T22:43:46.857Z,0.93
2023-03-13T22:46:13.977Z,1.08
2023-03-13T22:48:40.871Z,0.98
2023-03-13T22:51:12.890Z,0.70
2023-03-13T22:53:41.619Z,1.15
2023-03-13T22:56:12.816Z,1.30
2023-03-13T22:58:40.627Z,1.50
2023-03-13T23:01:08.957Z,1.15
2023-03-13T23:03:36.128Z,1.15
2023-03-13T23:06:14.666Z,1.10
2023-03-13T23:08:43.524Z,1.30
2023-03-13T23:11:10.742Z,1.40
2023-03-13T23:13:37.237Z,1.10
2023-03-13T23:16:11.219Z,1.00
2023-03-13T23:18:38.327Z,1.10
2023-03-13T23:21:06.834Z,1.23
2023-03-13T23:23:33.292Z,0.85
2023-03-13T23:26:00.965Z,0.90
2023-03-13T23:28:27.989Z,0.90
2023-03-13T23:30:54.810Z,0.82
2023-03-13T23:33:21.428Z,1.00
2023-03-13T23:35:47.981Z,1.15
2023-03-13T23:38:18.220Z,1.00
2023-03-13T23:40:44.886Z,0.75
2023-03-13T23:43:11.487Z,0.90
2023-03-13T23:45:37.931Z,0.95
2023-03-13T23:48:04.775Z,1.10
2023-03-13T23:50:31.337Z,1.25
2023-03-13T23:52:57.810Z,1.70
2023-03-13T23:55:24.265Z,1.48
2023-03-13T23:57:50.732Z,1.50
